Thomasville, GA

11:31 AM EDT on August 30, 2015 (GMT -0400)
Glen Arven CC | | Change Station
CLOSE
Current Station
Personal Weather Station
Location: Glen Arven CC, GA
Elevation: 276 ft
Nearby Weather Stations

Elev 276 ft 30.82 °N, 83.96 °W | Updated 14 minutes ago

Clear
Clear
87.6 °F
Feels Like 97 °F
N
3.8
Wind Variable Wind from SSW

Today
High -- | Low -- °F
--% Chance of Precip.
Yesterday
High -- | Low -- °F
Precip. -- in
7:10 AM 8:01 PM
Full, 99% visible
Pressure 30.09 in
Visibility 10.0 miles
Clouds Clear
Heat Index 97 °F
Dew Point 75 °F
Humidity 66%
Rainfall 0.49 in
Snow Depth Not available.
UV 9 out of 12
Pollen 7.30 out of 12
Air Quality Not available.
Flu Activity Not available.
METAR KTVI 301515Z AUTO 28003KT 10SM CLR 27/22 A3009 RMK AO2
Pressure 30.09 in
Visibility 10.0 miles
Clouds Clear
Heat Index 97 °F
Dew Point 75 °F
Humidity 66%
Rainfall 0.49 in
Snow Depth Not available.
UV 9 out of 12
Pollen 7.30 out of 12
Air Quality Not available.
Flu Activity Not available.
METAR KTVI 301515Z AUTO 28003KT 10SM CLR 27/22 A3009 RMK AO2

10-Day Weather Forecast

×

Almanac

Astronomy

Aug. 30, 2015 Rise Set
Actual Time
Civil Twilight
Nautical Twilight
Astronomical Twilight
Moon
Length of Visible Light
Length of Day
Tomorrow will be .
, % of the Moon is Illuminated

Today's Extremes

State Highs State Lows

Community

WunderPhotos

Upload Photos

1,850,996 photos uploaded!

WunderBlogs® & News

Nearby

Air Quality

  Air Quality AQ Index Pollutant
Not available.

Snow Depth

Station Depth Elevation

Earthquake Activity

City Distance Mag. Time & Date
Minimum magnitude displayed is 2.5.

Coastal Water Temperatures

Place Temperature

Stations

Nearby Weather Stations

Station Location Temp. Windchill Dew Point Humidity Wind Precip. Elev Updated Type